sensor_id;sensor_type;location;lat;lon;timestamp;P1;P2;P0
57798;PMS7003;43626;53.866;30.298;2024-02-21T00:00:03;46.4;37.4;22.8
57798;PMS7003;43626;53.866;30.298;2024-02-21T00:05:03;48.8;38.4;22.4
57798;PMS7003;43626;53.866;30.298;2024-02-21T00:09:48;48.8;38.4;22.4
57798;PMS7003;43626;53.866;30.298;2024-02-21T00:15:03;59.6;47.4;27
57798;PMS7003;43626;53.866;30.298;2024-02-21T00:19:10;59.6;47.4;27
57798;PMS7003;43626;53.866;30.298;2024-02-21T00:24:10;62.8;47.4;27.2
57798;PMS7003;43626;53.866;30.298;2024-02-21T00:29:26;61.8;47;27
57798;PMS7003;43626;53.866;30.298;2024-02-21T00:34:22;62.2;46.8;26.8
57798;PMS7003;43626;53.866;30.298;2024-02-21T00:39:36;60.5;46.3;26.8
57798;PMS7003;43626;53.866;30.298;2024-02-21T00:44:32;57.6;44.6;26.6
57798;PMS7003;43626;53.866;30.298;2024-02-21T00:49:18;60;45.8;26.8
57798;PMS7003;43626;53.866;30.298;2024-02-21T00:55:01;57.8;45.2;26
57798;PMS7003;43626;53.866;30.298;2024-02-21T00:59:47;54.8;42.4;24
57798;PMS7003;43626;53.866;30.298;2024-02-21T01:04:18;54.2;41.8;23.8
57798;PMS7003;43626;53.866;30.298;2024-02-21T01:09:11;52.6;40.6;23.2
57798;PMS7003;43626;53.866;30.298;2024-02-21T01:14:40;47.6;37;22
57798;PMS7003;43626;53.866;30.298;2024-02-21T01:19:50;51.8;38.4;22
57798;PMS7003;43626;53.866;30.298;2024-02-21T01:24:18;54.4;42;24.8
57798;PMS7003;43626;53.866;30.298;2024-02-21T01:29:50;58.6;44.4;25.2
57798;PMS7003;43626;53.866;30.298;2024-02-21T01:34:12;55.2;43;24.2
57798;PMS7003;43626;53.866;30.298;2024-02-21T01:40:03;53.2;40;22.6
57798;PMS7003;43626;53.866;30.298;2024-02-21T01:44:49;53.2;40;22.6
57798;PMS7003;43626;53.866;30.298;2024-02-21T01:50:03;49.8;39;22.4
57798;PMS7003;43626;53.866;30.298;2024-02-21T01:54:18;49.8;39;22.4
57798;PMS7003;43626;53.866;30.298;2024-02-21T01:59:11;52;40.2;23.4
57798;PMS7003;43626;53.866;30.298;2024-02-21T02:04:19;50.4;39;22.8
57798;PMS7003;43626;53.866;30.298;2024-02-21T02:09:31;50.8;39.4;23.6
57798;PMS7003;43626;53.866;30.298;2024-02-21T02:14:11;52.4;40.4;24
57798;PMS7003;43626;53.866;30.298;2024-02-21T02:19:40;51.8;40.2;23.6
57798;PMS7003;43626;53.866;30.298;2024-02-21T02:24:11;52.2;40.2;23.4
57798;PMS7003;43626;53.866;30.298;2024-02-21T02:30:00;55.2;42;24
57798;PMS7003;43626;53.866;30.298;2024-02-21T02:34:47;58.2;45.2;25.2
57798;PMS7003;43626;53.866;30.298;2024-02-21T02:39:27;64.3;47.5;27.8
57798;PMS7003;43626;53.866;30.298;2024-02-21T02:44:39;62.8;47.2;28
57798;PMS7003;43626;53.866;30.298;2024-02-21T02:49:41;61.4;45.2;26.2
57798;PMS7003;43626;53.866;30.298;2024-02-21T02:55:03;64;49.2;28
57798;PMS7003;43626;53.866;30.298;2024-02-21T02:59:31;64;49.2;28
57798;PMS7003;43626;53.866;30.298;2024-02-21T03:04:29;62.8;48.2;28.4
57798;PMS7003;43626;53.866;30.298;2024-02-21T03:09:21;60.2;46.2;28.2
57798;PMS7003;43626;53.866;30.298;2024-02-21T03:15:01;57.6;44.4;25.2
57798;PMS7003;43626;53.866;30.298;2024-02-21T03:19:51;52.4;42;24.6
57798;PMS7003;43626;53.866;30.298;2024-02-21T03:24:51;56;42.8;25
57798;PMS7003;43626;53.866;30.298;2024-02-21T03:29:37;58;45.2;26.2
57798;PMS7003;43626;53.866;30.298;2024-02-21T03:34:11;54.8;43.2;25.8
57798;PMS7003;43626;53.866;30.298;2024-02-21T03:39:37;52;39.5;24
57798;PMS7003;43626;53.866;30.298;2024-02-21T03:44:11;45;36.2;21.6
57798;PMS7003;43626;53.866;30.298;2024-02-21T03:49:43;49.6;38.4;22.2
57798;PMS7003;43626;53.866;30.298;2024-02-21T03:54:43;62.6;47.6;28.4
57798;PMS7003;43626;53.866;30.298;2024-02-21T03:59:50;59.8;45.6;26
57798;PMS7003;43626;53.866;30.298;2024-02-21T04:05:01;55.8;43.6;24.4
57798;PMS7003;43626;53.866;30.298;2024-02-21T04:10:01;51;39.8;23.6
57798;PMS7003;43626;53.866;30.298;2024-02-21T04:14:21;57;44.4;26.8
57798;PMS7003;43626;53.866;30.298;2024-02-21T04:19:43;56.2;45.2;27.8
57798;PMS7003;43626;53.866;30.298;2024-02-21T04:25:03;63.4;49.6;29.4
57798;PMS7003;43626;53.866;30.298;2024-02-21T04:29:51;63.4;49.6;29.4
57798;PMS7003;43626;53.866;30.298;2024-02-21T04:34:19;57.6;44.8;26.2
57798;PMS7003;43626;53.866;30.298;2024-02-21T04:39:13;56.8;44.4;26.4
57798;PMS7003;43626;53.866;30.298;2024-02-21T04:44:23;50.8;39.8;23.3
57798;PMS7003;43626;53.866;30.298;2024-02-21T04:50:01;57.4;43.2;25.4
57798;PMS7003;43626;53.866;30.298;2024-02-21T04:54:29;52.4;41.6;24.2
57798;PMS7003;43626;53.866;30.298;2024-02-21T05:00:01;50.4;38.6;22.2
57798;PMS7003;43626;53.866;30.298;2024-02-21T05:04:19;46.6;36;21.8
57798;PMS7003;43626;53.866;30.298;2024-02-21T05:09:29;49;37;22.2
57798;PMS7003;43626;53.866;30.298;2024-02-21T05:14:43;53.2;40;23.4
57798;PMS7003;43626;53.866;30.298;2024-02-21T05:19:27;52.6;39.2;23.2
57798;PMS7003;43626;53.866;30.298;2024-02-21T05:24:35;50.6;39.6;23.2
57798;PMS7003;43626;53.866;30.298;2024-02-21T05:29:45;52.4;39;23.6
57798;PMS7003;43626;53.866;30.298;2024-02-21T05:34:17;50.8;38.8;23
57798;PMS7003;43626;53.866;30.298;2024-02-21T05:39:37;52.2;40;23
57798;PMS7003;43626;53.866;30.298;2024-02-21T05:45:01;53;41.3;23.8
57798;PMS7003;43626;53.866;30.298;2024-02-21T05:49:47;58.2;45.4;27.4
57798;PMS7003;43626;53.866;30.298;2024-02-21T05:54:47;56.4;44;24.6
57798;PMS7003;43626;53.866;30.298;2024-02-21T05:59:45;52.8;41.2;24.2
57798;PMS7003;43626;53.866;30.298;2024-02-21T06:04:49;55.2;41.2;23.4
57798;PMS7003;43626;53.866;30.298;2024-02-21T06:09:37;53;41.8;23.6
57798;PMS7003;43626;53.866;30.298;2024-02-21T06:14:47;56.6;44.4;25.2
57798;PMS7003;43626;53.866;30.298;2024-02-21T06:19:59;56.6;42.8;25.4
57798;PMS7003;43626;53.866;30.298;2024-02-21T06:24:59;55.2;42.4;24.2
57798;PMS7003;43626;53.866;30.298;2024-02-21T06:29:35;60.5;46;26.8
57798;PMS7003;43626;53.866;30.298;2024-02-21T06:34:59;63.8;48.3;28
57798;PMS7003;43626;53.866;30.298;2024-02-21T06:39:35;55.6;44.2;26.8
57798;PMS7003;43626;53.866;30.298;2024-02-21T06:44:45;59.2;45.2;26.6
57798;PMS7003;43626;53.866;30.298;2024-02-21T06:49:11;61;46.8;28
57798;PMS7003;43626;53.866;30.298;2024-02-21T06:54:11;66.8;51;29.4
57798;PMS7003;43626;53.866;30.298;2024-02-21T06:59:11;67;51;29.8
57798;PMS7003;43626;53.866;30.298;2024-02-21T07:04:19;65.8;50;28.8
57798;PMS7003;43626;53.866;30.298;2024-02-21T07:09:19;61.2;45.8;26.6
57798;PMS7003;43626;53.866;30.298;2024-02-21T07:14:19;55.3;42.5;25
57798;PMS7003;43626;53.866;30.298;2024-02-21T07:20:01;54.8;42.4;24.2
57798;PMS7003;43626;53.866;30.298;2024-02-21T07:24:47;56.8;42.8;24.2
57798;PMS7003;43626;53.866;30.298;2024-02-21T07:30:01;81.8;66.2;36.4
57798;PMS7003;43626;53.866;30.298;2024-02-21T07:34:47;99;84.3;48.5
57798;PMS7003;43626;53.866;30.298;2024-02-21T07:39:49;63.8;47.6;28.2
57798;PMS7003;43626;53.866;30.298;2024-02-21T07:44:23;62;46;27.8
57798;PMS7003;43626;53.866;30.298;2024-02-21T07:49:13;59.2;46.2;27
57798;PMS7003;43626;53.866;30.298;2024-02-21T07:55:01;63;47.2;27.8
57798;PMS7003;43626;53.866;30.298;2024-02-21T08:00:01;56.4;43.4;24.8
57798;PMS7003;43626;53.866;30.298;2024-02-21T08:04:27;57.8;45.2;26
57798;PMS7003;43626;53.866;30.298;2024-02-21T08:10:01;65.8;49.8;28.4
57798;PMS7003;43626;53.866;30.298;2024-02-21T08:14:49;56.4;42.4;23.2
57798;PMS7003;43626;53.866;30.298;2024-02-21T08:19:47;51.4;38;18
57798;PMS7003;43626;53.866;30.298;2024-02-21T08:24:53;52.2;40.2;21.4
57798;PMS7003;43626;53.866;30.298;2024-02-21T08:29:29;52.6;42;23.6
57798;PMS7003;43626;53.866;30.298;2024-02-21T08:34:23;50.5;39.3;22
57798;PMS7003;43626;53.866;30.298;2024-02-21T08:39:25;56.2;41.8;23.6
57798;PMS7003;43626;53.866;30.298;2024-02-21T08:44:23;53.6;41.6;23.2
57798;PMS7003;43626;53.866;30.298;2024-02-21T08:49:11;55.8;42.4;23.2
57798;PMS7003;43626;53.866;30.298;2024-02-21T08:54:41;61.2;47.2;26.8
57798;PMS7003;43626;53.866;30.298;2024-02-21T08:59:29;59.4;45.2;23.8
57798;PMS7003;43626;53.866;30.298;2024-02-21T09:05:01;57;43.2;25
57798;PMS7003;43626;53.866;30.298;2024-02-21T09:09:57;54.6;41;23.2
57798;PMS7003;43626;53.866;30.298;2024-02-21T09:14:27;53;39.8;22.2
57798;PMS7003;43626;53.866;30.298;2024-02-21T09:19:29;55.6;42.4;22.4
57798;PMS7003;43626;53.866;30.298;2024-02-21T09:24:49;54.6;41.2;21.6
57798;PMS7003;43626;53.866;30.298;2024-02-21T09:29:13;61;44.6;24.8
57798;PMS7003;43626;53.866;30.298;2024-02-21T09:34:31;48.5;37.3;20.8
57798;PMS7003;43626;53.866;30.298;2024-02-21T09:40:01;51.6;38.2;21.4
57798;PMS7003;43626;53.866;30.298;2024-02-21T09:44:39;47.4;35;19.6
57798;PMS7003;43626;53.866;30.298;2024-02-21T09:49:49;51.8;39.2;21.8
57798;PMS7003;43626;53.866;30.298;2024-02-21T09:54:19;51.8;39;21.6
57798;PMS7003;43626;53.866;30.298;2024-02-21T09:59:49;51;37;19.8
57798;PMS7003;43626;53.866;30.298;2024-02-21T10:04:27;48.8;37.6;21.8
57798;PMS7003;43626;53.866;30.298;2024-02-21T10:09:23;51.4;38;20.8
57798;PMS7003;43626;53.866;30.298;2024-02-21T10:14:49;53.2;39.8;21.8
57798;PMS7003;43626;53.866;30.298;2024-02-21T10:19:31;52.3;38.8;20.5
57798;PMS7003;43626;53.866;30.298;2024-02-21T10:24:33;50.2;37.8;20.8
57798;PMS7003;43626;53.866;30.298;2024-02-21T10:29:11;50.8;37.4;20.2
57798;PMS7003;43626;53.866;30.298;2024-02-21T10:34:21;40.4;31.2;16.6
57798;PMS7003;43626;53.866;30.298;2024-02-21T10:40:01;42.8;31.8;16.6
57798;PMS7003;43626;53.866;30.298;2024-02-21T10:45:01;41.8;32.5;15.5
57798;PMS7003;43626;53.866;30.298;2024-02-21T10:50:02;44.6;32.6;18.6
57798;PMS7003;43626;53.866;30.298;2024-02-21T10:54:59;50.4;36.6;19.4
57798;PMS7003;43626;53.866;30.298;2024-02-21T11:00:01;50;37.4;21.2
57798;PMS7003;43626;53.866;30.298;2024-02-21T11:04:51;48;36.6;19.2
57798;PMS7003;43626;53.866;30.298;2024-02-21T11:09:31;41.2;32.2;17.6
57798;PMS7003;43626;53.866;30.298;2024-02-21T11:15:04;36.8;29.8;16.6
57798;PMS7003;43626;53.866;30.298;2024-02-21T11:19:24;40.2;30;15.8
57798;PMS7003;43626;53.866;30.298;2024-02-21T11:25:06;37.6;30.2;15.8
57798;PMS7003;43626;53.866;30.298;2024-02-21T11:29:22;41.6;31.6;16.6
57798;PMS7003;43626;53.866;30.298;2024-02-21T11:34:54;42.6;32.6;18.6
57798;PMS7003;43626;53.866;30.298;2024-02-21T11:39:11;37.2;30.6;15.4
57798;PMS7003;43626;53.866;30.298;2024-02-21T11:44:11;36.8;31.5;16.5
57798;PMS7003;43626;53.866;30.298;2024-02-21T11:49:45;38.8;31.2;15.6
57798;PMS7003;43626;53.866;30.298;2024-02-21T11:54:31;35;30;16
57798;PMS7003;43626;53.866;30.298;2024-02-21T11:59:31;33;28.4;15
57798;PMS7003;43626;53.866;30.298;2024-02-21T12:04:19;32.8;26.2;15
57798;PMS7003;43626;53.866;30.298;2024-02-21T12:09:49;31;25.4;13.8
57798;PMS7003;43626;53.866;30.298;2024-02-21T12:15:02;26.2;22.2;12
57798;PMS7003;43626;53.866;30.298;2024-02-21T12:20:01;34.6;27;14.4
57798;PMS7003;43626;53.866;30.298;2024-02-21T12:24:31;36.3;28.3;15.3
57798;PMS7003;43626;53.866;30.298;2024-02-21T12:29:41;36.8;30.6;18.2
57798;PMS7003;43626;53.866;30.298;2024-02-21T12:34:59;30.6;23.4;13.6
57798;PMS7003;43626;53.866;30.298;2024-02-21T12:39:49;25.8;21;13.5
57798;PMS7003;43626;53.866;30.298;2024-02-21T12:44:41;28.2;24.6;13.6
57798;PMS7003;43626;53.866;30.298;2024-02-21T12:49:41;32.2;26;15.2
57798;PMS7003;43626;53.866;30.298;2024-02-21T12:54:31;33.6;27;14.4
57798;PMS7003;43626;53.866;30.298;2024-02-21T13:00:01;32.3;25.5;15
57798;PMS7003;43626;53.866;30.298;2024-02-21T13:04:39;30.6;25;13.8
57798;PMS7003;43626;53.866;30.298;2024-02-21T13:10:01;31.8;26;14.2
57798;PMS7003;43626;53.866;30.298;2024-02-21T13:14:47;29.8;26.2;14.6
57798;PMS7003;43626;53.866;30.298;2024-02-21T13:19:31;29.2;27.2;14.6
57798;PMS7003;43626;53.866;30.298;2024-02-21T13:24:11;33;27.7;16.3
57798;PMS7003;43626;53.866;30.298;2024-02-21T13:29:11;37.2;29.8;16.8
57798;PMS7003;43626;53.866;30.298;2024-02-21T13:34:11;41.4;32.2;19.2
57798;PMS7003;43626;53.866;30.298;2024-02-21T13:39:11;38;29.8;17.4
57798;PMS7003;43626;53.866;30.298;2024-02-21T13:44:11;36.4;29.6;17
57798;PMS7003;43626;53.866;30.298;2024-02-21T13:49:47;32;26.4;15.6
57798;PMS7003;43626;53.866;30.298;2024-02-21T13:54:53;29.4;24.2;14.2
57798;PMS7003;43626;53.866;30.298;2024-02-21T13:59:27;33.4;26.2;15
57798;PMS7003;43626;53.866;30.298;2024-02-21T14:05:03;37.4;30.2;17
57798;PMS7003;43626;53.866;30.298;2024-02-21T14:09:49;37.4;30.2;17
57798;PMS7003;43626;53.866;30.298;2024-02-21T14:15:03;41.4;33.4;19.4
57798;PMS7003;43626;53.866;30.298;2024-02-21T14:19:23;41.4;33.4;19.4
57798;PMS7003;43626;53.866;30.298;2024-02-21T14:24:51;40.2;32.6;18.4
57798;PMS7003;43626;53.866;30.298;2024-02-21T14:30:03;45.8;34.8;19.8
57798;PMS7003;43626;53.866;30.298;2024-02-21T14:35:03;44;34.4;20
57798;PMS7003;43626;53.866;30.298;2024-02-21T14:39:11;44;34.4;20
57798;PMS7003;43626;53.866;30.298;2024-02-21T14:44:47;45.4;34.6;20.2
57798;PMS7003;43626;53.866;30.298;2024-02-21T14:50:02;44.4;34;19
57798;PMS7003;43626;53.866;30.298;2024-02-21T14:54:29;42.8;34.6;19.6
57798;PMS7003;43626;53.866;30.298;2024-02-21T15:00:01;45;34.4;20
57798;PMS7003;43626;53.866;30.298;2024-02-21T15:04:11;46.8;35.8;20.3
57798;PMS7003;43626;53.866;30.298;2024-02-21T15:09:23;41.8;34.2;19.8
57798;PMS7003;43626;53.866;30.298;2024-02-21T15:14:21;46.8;36;20.6
57798;PMS7003;43626;53.866;30.298;2024-02-21T15:19:23;47.8;35.4;20.6
57798;PMS7003;43626;53.866;30.298;2024-02-21T15:24:25;45.6;35.4;20.6
57798;PMS7003;43626;53.866;30.298;2024-02-21T15:29:31;56;42.2;25.2
57798;PMS7003;43626;53.866;30.298;2024-02-21T15:34:33;57.8;44.4;26.8
57798;PMS7003;43626;53.866;30.298;2024-02-21T15:40:01;51.8;40.4;22.4
57798;PMS7003;43626;53.866;30.298;2024-02-21T15:44:15;45.8;35;20.4
57798;PMS7003;43626;53.866;30.298;2024-02-21T15:49:11;54;42.4;25.8
57798;PMS7003;43626;53.866;30.298;2024-02-21T15:54:19;58.2;43.8;26.4
57798;PMS7003;43626;53.866;30.298;2024-02-21T15:59:41;63.2;49;28.8
57798;PMS7003;43626;53.866;30.298;2024-02-21T16:04:51;66.8;50.8;29.8
57798;PMS7003;43626;53.866;30.298;2024-02-21T16:09:21;62.8;47.2;28.2
57798;PMS7003;43626;53.866;30.298;2024-02-21T16:14:39;61.6;47.6;29.2
57798;PMS7003;43626;53.866;30.298;2024-02-21T16:19:13;69.6;53.2;31.8
57798;PMS7003;43626;53.866;30.298;2024-02-21T16:25:03;66.8;49.6;29.4
57798;PMS7003;43626;53.866;30.298;2024-02-21T16:29:13;66.8;49.6;29.4
57798;PMS7003;43626;53.866;30.298;2024-02-21T16:35:03;58.6;43.8;26.2
57798;PMS7003;43626;53.866;30.298;2024-02-21T16:39:11;58.6;43.8;26.2
57798;PMS7003;43626;53.866;30.298;2024-02-21T16:44:25;59.6;44.4;26.8
57798;PMS7003;43626;53.866;30.298;2024-02-21T16:49:11;59.6;45;27
57798;PMS7003;43626;53.866;30.298;2024-02-21T16:54:43;60.6;45.6;26.2
57798;PMS7003;43626;53.866;30.298;2024-02-21T16:59:19;56.2;42.2;24.2
57798;PMS7003;43626;53.866;30.298;2024-02-21T17:04:43;54;41;22.8
57798;PMS7003;43626;53.866;30.298;2024-02-21T17:09:27;52.2;38.2;21
57798;PMS7003;43626;53.866;30.298;2024-02-21T17:14:49;52.2;39.4;22.2
57798;PMS7003;43626;53.866;30.298;2024-02-21T17:19:47;54.8;41.8;24
57798;PMS7003;43626;53.866;30.298;2024-02-21T17:24:31;55.4;40.8;23.2
57798;PMS7003;43626;53.866;30.298;2024-02-21T17:29:19;50.6;39.4;22
57798;PMS7003;43626;53.866;30.298;2024-02-21T17:34:43;56.4;42.4;23.6
57798;PMS7003;43626;53.866;30.298;2024-02-21T17:39:53;54.6;41;23.2
57798;PMS7003;43626;53.866;30.298;2024-02-21T17:44:33;57.4;44.2;25
57798;PMS7003;43626;53.866;30.298;2024-02-21T17:49:53;55.2;43.4;24.2
57798;PMS7003;43626;53.866;30.298;2024-02-21T17:54:47;58;43.8;24.8
57798;PMS7003;43626;53.866;30.298;2024-02-21T18:00:03;55.8;42.8;23.5
57798;PMS7003;43626;53.866;30.298;2024-02-21T18:04:37;55.8;42.8;23.5
57798;PMS7003;43626;53.866;30.298;2024-02-21T18:09:53;55.8;42.2;23
57798;PMS7003;43626;53.866;30.298;2024-02-21T18:14:37;52;39.8;23.2
57798;PMS7003;43626;53.866;30.298;2024-02-21T18:19:33;53.6;40.2;22.8
57798;PMS7003;43626;53.866;30.298;2024-02-21T18:24:37;54;39.8;21.4
57798;PMS7003;43626;53.866;30.298;2024-02-21T18:29:25;55;41.6;23
57798;PMS7003;43626;53.866;30.298;2024-02-21T18:35:03;57.8;43.8;24
57798;PMS7003;43626;53.866;30.298;2024-02-21T18:39:43;57.8;43.8;24
57798;PMS7003;43626;53.866;30.298;2024-02-21T18:44:47;60.4;44.4;25.2
57798;PMS7003;43626;53.866;30.298;2024-02-21T18:50:03;55.2;40.8;24
57798;PMS7003;43626;53.866;30.298;2024-02-21T18:55:03;52;40.2;22
57798;PMS7003;43626;53.866;30.298;2024-02-21T18:59:11;52;40.2;22
57798;PMS7003;43626;53.866;30.298;2024-02-21T19:04:33;50.2;38.2;22.2
57798;PMS7003;43626;53.866;30.298;2024-02-21T19:10:03;57.6;44.4;26
57798;PMS7003;43626;53.866;30.298;2024-02-21T19:14:19;57.6;44.4;26
57798;PMS7003;43626;53.866;30.298;2024-02-21T19:19:11;58;43;24.8
57798;PMS7003;43626;53.866;30.298;2024-02-21T19:24:45;54.4;40.8;23.4
57798;PMS7003;43626;53.866;30.298;2024-02-21T19:29:33;56.6;43.6;25
57798;PMS7003;43626;53.866;30.298;2024-02-21T19:35:03;59;44.4;25.2
57798;PMS7003;43626;53.866;30.298;2024-02-21T19:39:37;59;44.4;25.2
57798;PMS7003;43626;53.866;30.298;2024-02-21T19:44:49;57.8;43.4;24
57798;PMS7003;43626;53.866;30.298;2024-02-21T19:49:37;54;42.4;24.4
57798;PMS7003;43626;53.866;30.298;2024-02-21T19:54:47;54.8;40.8;24.2
57798;PMS7003;43626;53.866;30.298;2024-02-21T19:59:19;53.4;41;22.4
57798;PMS7003;43626;53.866;30.298;2024-02-21T20:04:27;54.8;40.2;22.4
57798;PMS7003;43626;53.866;30.298;2024-02-21T20:09:19;49.8;36.5;20.3
57798;PMS7003;43626;53.866;30.298;2024-02-21T20:14:11;46.8;35;18.6
57798;PMS7003;43626;53.866;30.298;2024-02-21T20:19:19;46.2;35.6;19.4
57798;PMS7003;43626;53.866;30.298;2024-02-21T20:24:27;43.6;31.8;15.8
57798;PMS7003;43626;53.866;30.298;2024-02-21T20:30:03;56;42;23.4
57798;PMS7003;43626;53.866;30.298;2024-02-21T20:34:19;56;42;23.4
57798;PMS7003;43626;53.866;30.298;2024-02-21T20:40:03;50.8;38.8;20.8
57798;PMS7003;43626;53.866;30.298;2024-02-21T20:44:33;50.8;38.8;20.8
57798;PMS7003;43626;53.866;30.298;2024-02-21T20:49:53;53.8;41.8;24.4
57798;PMS7003;43626;53.866;30.298;2024-02-21T20:54:11;51.8;38.8;22.6
57798;PMS7003;43626;53.866;30.298;2024-02-21T20:59:27;50.6;37;18.6
57798;PMS7003;43626;53.866;30.298;2024-02-21T21:05:01;47.6;34.4;17.4
57798;PMS7003;43626;53.866;30.298;2024-02-21T21:09:43;41.8;30.8;15.8
57798;PMS7003;43626;53.866;30.298;2024-02-21T21:14:35;46;33;15.6
57798;PMS7003;43626;53.866;30.298;2024-02-21T21:20:01;46.6;34;15.6
57798;PMS7003;43626;53.866;30.298;2024-02-21T21:24:12;47.4;33.8;15.8
57798;PMS7003;43626;53.866;30.298;2024-02-21T21:29:45;39.4;29.2;14.2
57798;PMS7003;43626;53.866;30.298;2024-02-21T21:34:27;37.4;28.6;13.4
57798;PMS7003;43626;53.866;30.298;2024-02-21T21:39:17;38.8;30;13.8
57798;PMS7003;43626;53.866;30.298;2024-02-21T21:44:11;37.8;29.8;13.2
57798;PMS7003;43626;53.866;30.298;2024-02-21T21:49:21;38.4;30.4;14.2
57798;PMS7003;43626;53.866;30.298;2024-02-21T21:54:51;43.2;32;16
57798;PMS7003;43626;53.866;30.298;2024-02-21T21:59:11;42.2;31.4;14
57798;PMS7003;43626;53.866;30.298;2024-02-21T22:05:01;35;28.8;12.4
57798;PMS7003;43626;53.866;30.298;2024-02-21T22:09:11;35.5;28.5;13.8
57798;PMS7003;43626;53.866;30.298;2024-02-21T22:15:01;35.4;29.2;12.8
57798;PMS7003;43626;53.866;30.298;2024-02-21T22:19:37;38.8;30;13.2
57798;PMS7003;43626;53.866;30.298;2024-02-21T22:24:51;39.4;31.2;14.8
57798;PMS7003;43626;53.866;30.298;2024-02-21T22:29:12;39.6;30.2;13.8
57798;PMS7003;43626;53.866;30.298;2024-02-21T22:34:43;36.2;29.2;13.2
57798;PMS7003;43626;53.866;30.298;2024-02-21T22:40:03;36.2;28.6;12.4
57798;PMS7003;43626;53.866;30.298;2024-02-21T22:45:03;31.4;25.2;12
57798;PMS7003;43626;53.866;30.298;2024-02-21T22:49:19;31.4;25.2;12
57798;PMS7003;43626;53.866;30.298;2024-02-21T22:55:03;33;25.4;11.6
57798;PMS7003;43626;53.866;30.298;2024-02-21T23:00:03;38;28;11.6
57798;PMS7003;43626;53.866;30.298;2024-02-21T23:04:49;38;28;11.6
57798;PMS7003;43626;53.866;30.298;2024-02-21T23:10:05;37;28;11.8
57798;PMS7003;43626;53.866;30.298;2024-02-21T23:14:19;37;28;11.8
57798;PMS7003;43626;53.866;30.298;2024-02-21T23:19:11;30.8;25.2;11.2
57798;PMS7003;43626;53.866;30.298;2024-02-21T23:24:19;31.2;25.4;11.2
57798;PMS7003;43626;53.866;30.298;2024-02-21T23:29:33;32.4;25;10.4
57798;PMS7003;43626;53.866;30.298;2024-02-21T23:34:11;33;26.2;11.8
57798;PMS7003;43626;53.866;30.298;2024-02-21T23:39:43;34;24.6;11.4
57798;PMS7003;43626;53.866;30.298;2024-02-21T23:44:29;29.2;24.4;11
57798;PMS7003;43626;53.866;30.298;2024-02-21T23:50:05;34.2;26.8;11.8
57798;PMS7003;43626;53.866;30.298;2024-02-21T23:54:49;34.2;26.8;11.8
57798;PMS7003;43626;53.866;30.298;2024-02-21T23:59:19;33;26.2;11.4
